Time;durP1;ratioP1;P1;durP2;ratioP2;P2;SDS_P1;SDS_P2;PMS_P1;PMS_P2;Temp;Humidity;BMP_temperature;BMP_pressure;BME280_temperature;BME280_humidity;BME280_pressure;Samples;Min_cycle;Max_cycle;Signal;HPM_P1;HPM_P2
2023/03/06 00:02:09;;;;;;;0.40;0.40;;;1.80;99.90;;;;;;4439435;32;20141;-69
2023/03/06 00:04:35;;;;;;;0.85;0.73;;;1.90;99.90;;;;;;4439534;32;20090;-69
2023/03/06 00:07:00;;;;;;;0.40;0.40;;;2.10;99.90;;;;;;4437951;32;20131;-70
2023/03/06 00:09:27;;;;;;;0.75;0.75;;;2.00;99.90;;;;;;4440058;32;20123;-70
2023/03/06 00:11:52;;;;;;;0.40;0.40;;;2.00;99.90;;;;;;4438884;32;20061;-69
2023/03/06 00:14:18;;;;;;;0.40;0.40;;;1.90;99.90;;;;;;4440039;32;20405;-69
2023/03/06 00:16:43;;;;;;;0.47;0.47;;;1.80;99.90;;;;;;4441253;32;20105;-69
2023/03/06 00:19:08;;;;;;;0.50;0.50;;;1.70;99.90;;;;;;4441076;32;20608;-69
2023/03/06 00:21:34;;;;;;;0.50;0.50;;;1.70;99.90;;;;;;4441710;32;20080;-73
2023/03/06 00:23:59;;;;;;;0.30;0.30;;;1.60;99.90;;;;;;4439776;32;20113;-71
2023/03/06 00:26:25;;;;;;;0.62;0.62;;;1.60;99.90;;;;;;4429138;32;20436;-71
2023/03/06 00:28:50;;;;;;;1.80;1.30;;;1.70;99.90;;;;;;4438253;32;20068;-69
2023/03/06 00:31:16;;;;;;;0.40;0.40;;;1.60;99.90;;;;;;4440775;32;20512;-71
2023/03/06 00:33:42;;;;;;;0.43;0.43;;;1.60;99.90;;;;;;4440549;32;20073;-70
2023/03/06 00:36:08;;;;;;;0.50;0.50;;;1.60;99.90;;;;;;4438526;32;20081;-70
2023/03/06 00:38:36;;;;;;;0.40;0.40;;;1.60;99.90;;;;;;4437803;32;20069;-70
2023/03/06 00:41:10;;;;;;;0.50;0.50;;;1.60;99.90;;;;;;4438375;32;20097;-70
2023/03/06 00:43:35;;;;;;;0.52;0.52;;;1.60;99.90;;;;;;4440499;32;20085;-69
2023/03/06 00:46:01;;;;;;;0.57;0.57;;;1.70;99.90;;;;;;4437868;32;20809;-70
2023/03/06 00:48:27;;;;;;;0.40;0.40;;;1.70;99.90;;;;;;4439888;32;20145;-69
2023/03/06 00:50:52;;;;;;;0.40;0.40;;;1.70;99.90;;;;;;4439255;32;20100;-70
2023/03/06 00:53:18;;;;;;;0.30;0.30;;;1.60;99.90;;;;;;4438926;32;20120;-69
2023/03/06 00:55:44;;;;;;;0.70;0.70;;;1.70;99.90;;;;;;4437174;32;20564;-70
2023/03/06 00:58:10;;;;;;;0.50;0.50;;;1.70;99.90;;;;;;4437245;32;20104;-69
2023/03/06 01:00:35;;;;;;;0.40;0.40;;;1.70;99.90;;;;;;4439158;32;20579;-71
2023/03/06 01:03:01;;;;;;;0.40;0.40;;;1.70;99.90;;;;;;4440423;32;20547;-69
2023/03/06 01:05:27;;;;;;;0.40;0.40;;;1.70;99.90;;;;;;4438224;32;20068;-71
2023/03/06 01:07:52;;;;;;;0.40;0.40;;;1.70;99.90;;;;;;4439903;32;20376;-70
2023/03/06 01:10:18;;;;;;;0.50;0.50;;;1.70;99.90;;;;;;4438774;32;20105;-71
2023/03/06 01:12:44;;;;;;;0.50;0.50;;;1.80;99.90;;;;;;4437279;32;20093;-72
2023/03/06 01:15:11;;;;;;;0.40;0.40;;;1.80;99.90;;;;;;4439551;32;20154;-69
2023/03/06 01:17:37;;;;;;;0.35;0.35;;;1.80;99.90;;;;;;4439111;32;20203;-70
2023/03/06 01:20:04;;;;;;;0.50;0.50;;;1.90;99.90;;;;;;4436587;32;20428;-71
2023/03/06 01:22:29;;;;;;;0.40;0.40;;;2.00;99.90;;;;;;4439274;32;20061;-70
2023/03/06 01:24:55;;;;;;;0.40;0.40;;;2.00;99.90;;;;;;4439524;32;20078;-70
2023/03/06 01:27:21;;;;;;;0.52;0.52;;;2.10;99.90;;;;;;4439347;32;20132;-70
2023/03/06 01:29:47;;;;;;;0.43;0.43;;;2.20;99.90;;;;;;4439866;32;20073;-72
2023/03/06 01:32:12;;;;;;;0.30;0.30;;;2.20;99.90;;;;;;4437835;32;20069;-70
2023/03/06 01:34:38;;;;;;;0.40;0.40;;;2.20;99.90;;;;;;4439895;32;20089;-69
2023/03/06 01:37:03;;;;;;;0.50;0.50;;;2.10;99.90;;;;;;4436123;32;20654;-69
2023/03/06 01:39:30;;;;;;;1.42;0.82;;;2.10;99.90;;;;;;4436768;32;20089;-70
2023/03/06 01:41:56;;;;;;;0.50;0.50;;;2.00;99.90;;;;;;4437472;32;20503;-70
2023/03/06 01:44:22;;;;;;;1.23;1.12;;;2.00;99.90;;;;;;4436486;32;20093;-70
2023/03/06 01:46:47;;;;;;;0.40;0.40;;;2.10;99.90;;;;;;4438136;32;20132;-72
2023/03/06 01:49:24;;;;;;;0.80;0.80;;;1.90;99.90;;;;;;4438758;32;20097;-70
2023/03/06 01:51:56;;;;;;;0.60;0.60;;;1.90;99.90;;;;;;4438287;32;20183;-70
2023/03/06 01:54:28;;;;;;;0.40;0.40;;;1.80;99.90;;;;;;4438643;32;20419;-71
2023/03/06 01:56:59;;;;;;;0.50;0.50;;;1.90;99.90;;;;;;4438244;32;20092;-70
2023/03/06 01:59:26;;;;;;;1.08;0.95;;;2.10;99.90;;;;;;4438704;32;20090;-71
2023/03/06 02:01:53;;;;;;;0.40;0.40;;;2.00;99.90;;;;;;4437174;32;20152;-69
2023/03/06 02:04:19;;;;;;;0.43;0.43;;;2.10;99.90;;;;;;4438747;32;20065;-71
2023/03/06 02:06:46;;;;;;;0.50;0.50;;;2.10;99.90;;;;;;4436892;32;20131;-72
2023/03/06 02:09:13;;;;;;;0.68;0.68;;;2.20;99.90;;;;;;4439122;32;20065;-71
2023/03/06 02:11:42;;;;;;;0.40;0.40;;;2.20;99.90;;;;;;4437005;32;20064;-73
2023/03/06 02:14:10;;;;;;;0.50;0.50;;;2.30;99.90;;;;;;4438494;32;20078;-70
2023/03/06 02:16:36;;;;;;;0.50;0.50;;;2.40;99.90;;;;;;4437722;32;20065;-71
2023/03/06 02:19:05;;;;;;;0.45;0.45;;;2.30;99.90;;;;;;4436812;32;20205;-71
2023/03/06 02:21:34;;;;;;;0.30;0.30;;;2.30;99.90;;;;;;4437309;32;20367;-73
2023/03/06 02:24:26;;;;;;;0.40;0.40;;;2.40;99.90;;;;;;4439565;32;20104;-71
2023/03/06 02:26:53;;;;;;;0.40;0.40;;;2.40;99.90;;;;;;4426148;32;20109;-72
2023/03/06 02:29:26;;;;;;;0.40;0.40;;;2.40;99.90;;;;;;4439019;32;20064;-70
2023/03/06 02:31:51;;;;;;;0.40;0.40;;;2.40;99.90;;;;;;4437945;32;20089;-72
2023/03/06 02:34:20;;;;;;;1.00;0.70;;;2.40;99.90;;;;;;4438336;32;20495;-71
2023/03/06 02:36:49;;;;;;;0.40;0.40;;;2.40;99.90;;;;;;4420596;32;20088;-70
2023/03/06 02:39:18;;;;;;;0.77;0.77;;;2.40;99.90;;;;;;4439199;32;20112;-76
2023/03/06 02:41:43;;;;;;;0.50;0.50;;;2.40;99.90;;;;;;4444238;32;20451;-77
2023/03/06 02:44:09;;;;;;;0.50;0.50;;;2.30;99.90;;;;;;4443820;32;20165;-75
2023/03/06 02:46:34;;;;;;;0.47;0.47;;;2.40;99.90;;;;;;4442568;32;20068;-77
2023/03/06 02:49:00;;;;;;;0.50;0.50;;;2.40;99.90;;;;;;4444119;32;20085;-76
2023/03/06 02:51:25;;;;;;;0.47;0.47;;;2.40;99.90;;;;;;4441009;32;20093;-77
2023/03/06 02:53:51;;;;;;;0.52;0.52;;;2.40;99.90;;;;;;4441099;32;20092;-76
2023/03/06 02:56:18;;;;;;;0.40;0.40;;;2.40;99.90;;;;;;4441223;32;20077;-77
2023/03/06 02:58:43;;;;;;;0.73;0.73;;;2.50;99.90;;;;;;4440254;32;20152;-75
2023/03/06 03:01:10;;;;;;;0.40;0.40;;;2.50;99.90;;;;;;4439467;32;21730;-77
2023/03/06 03:03:35;;;;;;;0.40;0.40;;;2.50;99.90;;;;;;4441915;32;20135;-76
2023/03/06 03:06:04;;;;;;;0.50;0.50;;;2.50;99.90;;;;;;4440175;32;20723;-76
2023/03/06 03:08:31;;;;;;;0.40;0.40;;;2.50;99.90;;;;;;4441368;32;20076;-76
2023/03/06 03:10:56;;;;;;;0.40;0.40;;;2.50;99.90;;;;;;4442456;32;20501;-77
2023/03/06 03:13:22;;;;;;;0.40;0.40;;;2.60;99.90;;;;;;4441976;32;20101;-77
2023/03/06 03:16:06;;;;;;;0.55;0.55;;;2.50;99.90;;;;;;4440478;32;20131;-76
2023/03/06 03:18:32;;;;;;;0.60;0.60;;;2.50;99.90;;;;;;4426497;32;20141;-77
2023/03/06 03:20:57;;;;;;;0.45;0.45;;;2.50;99.90;;;;;;4437899;32;20116;-76
2023/03/06 03:23:24;;;;;;;0.45;0.45;;;2.50;99.90;;;;;;4433379;32;20156;-76
2023/03/06 03:25:49;;;;;;;0.57;0.57;;;2.60;99.90;;;;;;4438252;32;20085;-76
2023/03/06 03:28:16;;;;;;;0.77;0.77;;;2.60;99.90;;;;;;4439536;32;20133;-76
2023/03/06 03:30:41;;;;;;;0.40;0.40;;;2.60;99.90;;;;;;4439624;32;20344;-76
2023/03/06 03:33:08;;;;;;;0.45;0.45;;;2.60;99.90;;;;;;4440133;32;20094;-76
2023/03/06 03:35:34;;;;;;;0.95;0.95;;;2.60;99.90;;;;;;4441158;32;20571;-77
2023/03/06 03:37:59;;;;;;;0.45;0.45;;;2.60;99.90;;;;;;4442320;32;20077;-76
2023/03/06 03:40:25;;;;;;;0.37;0.37;;;2.70;99.90;;;;;;4441200;32;20138;-76
2023/03/06 03:42:50;;;;;;;0.40;0.40;;;2.70;99.90;;;;;;4444799;32;20135;-76
2023/03/06 03:45:16;;;;;;;0.40;0.40;;;2.70;99.90;;;;;;4445694;32;20493;-77
2023/03/06 03:47:42;;;;;;;0.40;0.40;;;2.70;99.90;;;;;;4444885;32;20101;-76
2023/03/06 03:50:09;;;;;;;0.43;0.43;;;2.70;99.90;;;;;;4445950;32;20072;-76
2023/03/06 03:52:34;;;;;;;0.40;0.40;;;2.70;99.90;;;;;;4445423;32;20093;-75
2023/03/06 03:55:00;;;;;;;0.52;0.52;;;2.70;99.90;;;;;;4443334;32;20167;-76
2023/03/06 03:57:25;;;;;;;0.50;0.50;;;2.70;99.90;;;;;;4445358;32;20085;-75
2023/03/06 03:59:51;;;;;;;0.40;0.40;;;2.80;99.90;;;;;;4445173;32;20077;-76
2023/03/06 04:02:16;;;;;;;0.40;0.40;;;2.80;99.90;;;;;;4445569;32;20611;-77
2023/03/06 04:04:42;;;;;;;0.40;0.40;;;2.80;99.90;;;;;;4443218;32;20069;-74
2023/03/06 04:07:09;;;;;;;0.40;0.40;;;2.80;99.90;;;;;;4442073;32;20116;-76
2023/03/06 04:09:35;;;;;;;0.30;0.30;;;2.80;99.90;;;;;;4442351;32;20081;-77
2023/03/06 04:12:05;;;;;;;0.60;0.60;;;2.80;99.90;;;;;;4443821;32;20124;-74
2023/03/06 04:14:30;;;;;;;0.40;0.40;;;2.80;99.90;;;;;;4444815;32;20611;-75
2023/03/06 04:16:56;;;;;;;0.60;0.60;;;2.80;99.90;;;;;;4445060;32;20061;-77
2023/03/06 04:19:22;;;;;;;0.70;0.70;;;2.80;99.90;;;;;;4444606;32;20384;-76
2023/03/06 04:21:47;;;;;;;0.50;0.50;;;2.80;99.90;;;;;;4444532;32;20060;-76
2023/03/06 04:24:13;;;;;;;5.90;0.93;;;2.80;99.90;;;;;;4443163;32;20073;-76
2023/03/06 04:26:38;;;;;;;0.50;0.50;;;2.80;99.90;;;;;;4444063;32;20073;-77
2023/03/06 04:29:04;;;;;;;0.32;0.32;;;2.80;99.90;;;;;;4445541;32;20132;-75
2023/03/06 04:31:29;;;;;;;0.50;0.50;;;2.90;99.90;;;;;;4445386;32;20078;-75
2023/03/06 04:33:54;;;;;;;0.50;0.50;;;2.80;99.90;;;;;;4444637;32;20089;-77
2023/03/06 04:36:31;;;;;;;0.40;0.40;;;2.80;99.90;;;;;;4443904;32;20069;-77
2023/03/06 04:38:57;;;;;;;0.40;0.40;;;2.70;99.90;;;;;;4445612;32;20077;-77
2023/03/06 04:41:23;;;;;;;0.30;0.30;;;2.70;99.90;;;;;;4444899;32;20081;-74
2023/03/06 04:43:48;;;;;;;0.40;0.40;;;2.70;99.90;;;;;;4446029;32;20129;-77
2023/03/06 04:46:15;;;;;;;0.50;0.50;;;2.70;99.90;;;;;;4446025;32;20136;-74
2023/03/06 04:48:40;;;;;;;0.40;0.40;;;2.70;99.90;;;;;;4446921;32;20213;-76
2023/03/06 04:51:06;;;;;;;0.43;0.43;;;2.70;99.90;;;;;;4450279;32;20064;-75
2023/03/06 04:53:32;;;;;;;0.68;0.68;;;2.60;99.90;;;;;;4452694;32;20515;-77
2023/03/06 04:55:58;;;;;;;1.00;0.90;;;2.70;99.90;;;;;;4452048;32;20567;-76
2023/03/06 04:58:24;;;;;;;0.40;0.40;;;2.60;99.90;;;;;;4449677;32;20142;-73
2023/03/06 05:00:49;;;;;;;0.40;0.40;;;2.60;99.90;;;;;;4448025;32;20102;-75
2023/03/06 05:03:15;;;;;;;0.50;0.50;;;2.50;99.90;;;;;;4451395;32;20065;-74
2023/03/06 05:05:40;;;;;;;0.40;0.40;;;2.50;99.90;;;;;;4449560;32;20104;-75
2023/03/06 05:08:06;;;;;;;0.40;0.40;;;2.40;99.90;;;;;;4448531;32;20098;-77
2023/03/06 05:10:32;;;;;;;0.40;0.40;;;2.40;99.90;;;;;;4450328;32;20060;-77
2023/03/06 05:12:57;;;;;;;0.40;0.40;;;2.40;99.90;;;;;;4449842;32;20077;-77
2023/03/06 05:15:23;;;;;;;0.45;0.45;;;2.40;99.90;;;;;;4451623;32;20548;-77
2023/03/06 05:17:48;;;;;;;0.40;0.40;;;2.40;99.90;;;;;;4452670;32;20439;-75
2023/03/06 05:20:16;;;;;;;0.40;0.40;;;2.40;99.90;;;;;;4447772;32;20111;-76
2023/03/06 05:22:41;;;;;;;0.40;0.40;;;2.40;99.90;;;;;;4440602;32;20087;-76
2023/03/06 05:25:09;;;;;;;0.30;0.30;;;2.40;99.90;;;;;;4450195;32;20061;-78
2023/03/06 05:27:35;;;;;;;0.40;0.40;;;2.30;99.90;;;;;;4447821;32;20061;-75
2023/03/06 05:30:00;;;;;;;0.40;0.40;;;2.20;99.90;;;;;;4449007;32;20574;-78
2023/03/06 05:32:26;;;;;;;0.40;0.40;;;2.20;99.90;;;;;;4447729;32;20527;-75
2023/03/06 05:34:52;;;;;;;0.40;0.40;;;2.20;99.90;;;;;;4443707;32;20178;-74
2023/03/06 05:37:17;;;;;;;0.70;0.70;;;2.30;99.90;;;;;;4442085;32;20474;-74
2023/03/06 05:39:42;;;;;;;0.35;0.35;;;2.30;99.90;;;;;;4441888;32;20086;-73
2023/03/06 05:42:08;;;;;;;0.40;0.40;;;2.30;99.90;;;;;;4440861;32;20077;-76
2023/03/06 05:44:34;;;;;;;0.40;0.40;;;2.40;99.90;;;;;;4441310;32;20084;-74
2023/03/06 05:47:00;;;;;;;0.40;0.40;;;2.30;99.90;;;;;;4441771;32;20086;-75
2023/03/06 05:49:31;;;;;;;0.45;0.45;;;2.20;99.90;;;;;;4442154;32;20093;-75
2023/03/06 05:51:56;;;;;;;0.40;0.40;;;2.30;99.90;;;;;;4443343;32;20084;-76
2023/03/06 05:54:23;;;;;;;0.47;0.47;;;2.20;99.90;;;;;;4442139;32;20069;-75
2023/03/06 05:56:50;;;;;;;0.40;0.40;;;2.20;99.90;;;;;;4443269;32;20093;-76
2023/03/06 05:59:15;;;;;;;0.57;0.57;;;2.10;99.90;;;;;;4441973;32;20069;-76
2023/03/06 06:01:41;;;;;;;0.30;0.30;;;2.10;99.90;;;;;;4437561;32;20097;-74
2023/03/06 06:04:06;;;;;;;0.50;0.50;;;2.00;99.90;;;;;;4440352;32;20094;-75
2023/03/06 06:06:32;;;;;;;0.40;0.40;;;2.00;99.90;;;;;;4436904;32;20156;-74
2023/03/06 06:08:57;;;;;;;0.50;0.50;;;2.00;99.90;;;;;;4440540;32;20061;-75
2023/03/06 06:11:23;;;;;;;0.55;0.55;;;2.00;99.90;;;;;;4441815;32;20116;-76
2023/03/06 06:13:48;;;;;;;0.40;0.40;;;2.10;99.90;;;;;;4444109;32;20321;-76
2023/03/06 06:16:15;;;;;;;0.40;0.40;;;2.10;99.90;;;;;;4434017;32;20119;-75
2023/03/06 06:18:41;;;;;;;0.50;0.50;;;2.20;99.90;;;;;;4423592;32;20080;-74
2023/03/06 06:21:09;;;;;;;0.40;0.40;;;2.10;99.90;;;;;;4431120;32;20085;-73
2023/03/06 06:23:34;;;;;;;0.30;0.30;;;2.10;99.90;;;;;;4437655;32;20092;-77
2023/03/06 06:26:02;;;;;;;0.30;0.30;;;2.10;99.90;;;;;;4432189;32;20236;-73
2023/03/06 06:28:29;;;;;;;0.30;0.30;;;2.10;99.90;;;;;;4436277;32;20582;-77
2023/03/06 06:30:54;;;;;;;0.70;0.70;;;2.10;99.90;;;;;;4423911;32;20131;-74
2023/03/06 06:33:20;;;;;;;0.30;0.30;;;2.10;99.90;;;;;;4426028;32;20398;-78
2023/03/06 06:35:47;;;;;;;0.30;0.30;;;2.10;99.90;;;;;;4434109;32;20113;-76
2023/03/06 06:38:13;;;;;;;0.35;0.35;;;2.10;99.90;;;;;;4425555;32;21227;-75
2023/03/06 06:40:38;;;;;;;0.40;0.40;;;2.10;99.90;;;;;;4436700;32;20109;-73
2023/03/06 06:43:04;;;;;;;0.30;0.30;;;2.10;99.90;;;;;;4433876;32;20105;-76
2023/03/06 06:45:29;;;;;;;0.40;0.40;;;2.00;99.90;;;;;;4438304;32;20137;-75
2023/03/06 06:47:55;;;;;;;0.40;0.40;;;2.10;99.90;;;;;;4441979;32;20516;-76
2023/03/06 06:50:21;;;;;;;0.47;0.47;;;2.10;99.90;;;;;;4432481;32;20093;-75
2023/03/06 06:52:47;;;;;;;0.40;0.40;;;2.10;99.90;;;;;;4429300;32;20112;-76
2023/03/06 06:55:12;;;;;;;0.30;0.30;;;2.10;99.90;;;;;;4423615;32;20081;-76
2023/03/06 06:57:39;;;;;;;1.65;0.70;;;2.10;99.90;;;;;;4417715;32;20179;-75
2023/03/06 07:00:05;;;;;;;0.37;0.37;;;2.10;99.90;;;;;;4402621;32;20498;-75
2023/03/06 07:02:31;;;;;;;0.40;0.40;;;2.10;99.90;;;;;;4400174;32;20120;-74
2023/03/06 07:04:57;;;;;;;0.40;0.40;;;2.10;99.90;;;;;;4419001;32;20097;-74
2023/03/06 07:07:23;;;;;;;0.30;0.30;;;2.00;99.90;;;;;;4427660;32;20077;-73
2023/03/06 07:09:48;;;;;;;0.30;0.30;;;2.00;99.90;;;;;;4440220;27;20167;-63
2023/03/06 07:12:15;;;;;;;0.45;0.45;;;2.00;99.90;;;;;;4358045;32;20105;-64
2023/03/06 07:14:42;;;;;;;0.40;0.40;;;2.00;99.90;;;;;;4352740;32;20130;-64
2023/03/06 07:17:08;;;;;;;0.30;0.30;;;2.10;99.90;;;;;;4359422;32;20090;-64
2023/03/06 07:19:34;;;;;;;0.40;0.40;;;2.00;99.90;;;;;;4350183;32;20093;-65
2023/03/06 07:22:00;;;;;;;0.40;0.40;;;2.10;99.90;;;;;;4369118;32;20153;-66
2023/03/06 07:24:26;;;;;;;0.40;0.40;;;2.10;99.90;;;;;;4374142;32;20093;-63
2023/03/06 07:26:52;;;;;;;0.60;0.60;;;2.00;99.90;;;;;;4365658;32;20429;-65
2023/03/06 07:29:18;;;;;;;0.45;0.45;;;2.10;99.90;;;;;;4369456;32;20445;-63
2023/03/06 07:31:44;;;;;;;0.40;0.40;;;2.20;99.90;;;;;;4352565;32;21117;-61
2023/03/06 07:34:12;;;;;;;0.40;0.40;;;2.20;99.90;;;;;;4367721;32;20122;-65
2023/03/06 07:36:39;;;;;;;0.40;0.40;;;2.20;99.90;;;;;;4369356;32;20737;-66
2023/03/06 07:39:05;;;;;;;0.60;0.60;;;2.20;99.90;;;;;;4367397;32;20101;-64
2023/03/06 07:41:31;;;;;;;0.40;0.40;;;2.20;99.90;;;;;;4357360;32;20437;-66
2023/03/06 07:43:56;;;;;;;0.40;0.40;;;2.20;99.90;;;;;;4366860;32;20093;-66
2023/03/06 07:46:23;;;;;;;0.30;0.30;;;2.20;99.90;;;;;;4377220;32;20622;-64
2023/03/06 07:48:48;;;;;;;0.40;0.40;;;2.20;99.90;;;;;;4374074;32;20109;-65
2023/03/06 07:51:17;;;;;;;0.50;0.50;;;2.30;99.90;;;;;;4376145;32;20093;-67
2023/03/06 07:53:43;;;;;;;0.40;0.40;;;2.30;99.90;;;;;;4383394;32;20125;-64
2023/03/06 07:56:09;;;;;;;0.40;0.40;;;2.40;99.90;;;;;;4374967;32;20530;-66
2023/03/06 07:58:36;;;;;;;0.30;0.30;;;2.40;99.90;;;;;;4368669;32;20113;-66
2023/03/06 08:01:04;;;;;;;0.40;0.40;;;2.40;99.90;;;;;;4372742;32;20089;-65
2023/03/06 08:03:30;;;;;;;0.50;0.50;;;2.50;99.90;;;;;;4374923;32;20093;-66
2023/03/06 08:06:08;;;;;;;0.30;0.30;;;2.40;99.90;;;;;;4366426;32;20105;-66
2023/03/06 08:08:35;;;;;;;0.35;0.35;;;2.40;99.90;;;;;;4370333;32;20244;-65
2023/03/06 08:11:01;;;;;;;0.50;0.50;;;2.40;99.90;;;;;;4372448;32;20350;-65
2023/03/06 08:13:26;;;;;;;0.50;0.50;;;2.40;99.90;;;;;;4372576;32;20496;-64
2023/03/06 08:15:51;;;;;;;0.40;0.40;;;2.50;99.90;;;;;;4372698;32;20097;-67
2023/03/06 08:18:17;;;;;;;0.40;0.40;;;2.40;99.90;;;;;;4372362;32;20113;-65
2023/03/06 08:20:42;;;;;;;0.40;0.40;;;2.40;99.90;;;;;;4372996;32;20201;-65
2023/03/06 08:23:08;;;;;;;0.40;0.40;;;2.30;99.90;;;;;;4366856;32;20851;-66
2023/03/06 08:25:35;;;;;;;0.45;0.45;;;2.40;99.90;;;;;;4374218;32;20354;-64
2023/03/06 08:28:00;;;;;;;0.40;0.40;;;2.40;99.90;;;;;;4365323;32;20109;-66
2023/03/06 08:30:26;;;;;;;0.40;0.40;;;2.30;99.90;;;;;;4366327;32;20167;-65
2023/03/06 08:32:51;;;;;;;0.45;0.45;;;2.30;99.90;;;;;;4370589;32;20130;-65
2023/03/06 08:35:17;;;;;;;0.40;0.40;;;2.30;99.90;;;;;;4373498;32;20387;-68
2023/03/06 08:37:42;;;;;;;0.40;0.40;;;2.20;99.90;;;;;;4380139;32;20114;-67
2023/03/06 08:40:09;;;;;;;0.40;0.40;;;2.20;99.90;;;;;;4381657;32;21634;-67
2023/03/06 08:42:34;;;;;;;0.37;0.37;;;2.30;99.90;;;;;;4380038;32;20126;-64
2023/03/06 08:45:00;;;;;;;0.40;0.40;;;2.20;99.90;;;;;;4386240;32;20073;-63
2023/03/06 08:47:25;;;;;;;0.40;0.40;;;2.20;99.90;;;;;;4379136;32;20159;-66
2023/03/06 08:49:51;;;;;;;0.30;0.30;;;2.20;99.90;;;;;;4370951;32;20105;-67
2023/03/06 08:52:18;;;;;;;0.40;0.40;;;2.10;99.90;;;;;;4359460;32;20122;-65
2023/03/06 08:54:44;;;;;;;0.55;0.55;;;2.10;99.90;;;;;;4356426;32;20995;-65
2023/03/06 08:57:09;;;;;;;0.40;0.40;;;2.20;99.90;;;;;;4356298;32;20140;-65
2023/03/06 08:59:35;;;;;;;0.37;0.37;;;2.20;99.90;;;;;;4367841;32;20235;-65
2023/03/06 09:02:02;;;;;;;0.62;0.62;;;2.10;99.90;;;;;;4356256;32;20570;-65
2023/03/06 09:04:30;;;;;;;0.62;0.62;;;2.00;99.90;;;;;;4357139;32;20090;-65
2023/03/06 09:06:55;;;;;;;0.40;0.40;;;2.00;99.90;;;;;;4354576;32;20170;-66
2023/03/06 09:09:21;;;;;;;0.47;0.47;;;2.00;99.90;;;;;;4367620;32;20202;-67
2023/03/06 09:11:46;;;;;;;0.50;0.50;;;1.90;99.90;;;;;;4359398;32;20150;-65
2023/03/06 09:14:13;;;;;;;0.40;0.40;;;1.90;99.90;;;;;;4360958;32;20793;-66
2023/03/06 09:16:38;;;;;;;0.50;0.50;;;2.00;99.90;;;;;;4358472;32;21118;-66
2023/03/06 09:19:04;;;;;;;0.40;0.40;;;2.00;99.90;;;;;;4372598;32;22009;-66
2023/03/06 09:21:29;;;;;;;0.40;0.40;;;2.00;99.90;;;;;;4352456;32;20122;-68
2023/03/06 09:23:55;;;;;;;0.60;0.60;;;2.00;99.90;;;;;;4371017;32;20082;-66
2023/03/06 09:26:21;;;;;;;0.30;0.30;;;2.10;99.90;;;;;;4360088;32;20640;-65
2023/03/06 09:28:47;;;;;;;0.40;0.40;;;2.10;99.90;;;;;;4365087;32;20701;-65
2023/03/06 09:31:15;;;;;;;0.40;0.40;;;2.10;99.90;;;;;;4355723;32;20162;-65
2023/03/06 09:33:41;;;;;;;0.40;0.40;;;2.00;99.90;;;;;;4370366;32;20236;-66
2023/03/06 09:36:07;;;;;;;0.32;0.32;;;2.00;99.90;;;;;;4364117;32;20099;-67
2023/03/06 09:38:33;;;;;;;0.40;0.40;;;2.10;99.90;;;;;;4376122;32;20159;-65
2023/03/06 09:41:18;;;;;;;0.32;0.32;;;2.10;99.90;;;;;;4365211;32;20098;-67
2023/03/06 09:43:47;;;;;;;0.50;0.50;;;2.00;99.90;;;;;;4364103;32;20360;-67
2023/03/06 09:46:26;;;;;;;0.43;0.43;;;2.10;99.90;;;;;;4360808;32;20093;-66
2023/03/06 09:49:09;;;;;;;0.40;0.40;;;1.90;99.90;;;;;;4364509;32;20136;-66
2023/03/06 09:51:47;;;;;;;0.40;0.40;;;1.90;99.90;;;;;;4372239;32;20115;-67
2023/03/06 09:54:14;;;;;;;0.43;0.43;;;1.90;99.90;;;;;;4370863;32;20629;-65
2023/03/06 09:56:47;;;;;;;0.40;0.40;;;1.80;99.90;;;;;;4378438;32;20133;-68
2023/03/06 09:59:19;;;;;;;0.40;0.40;;;1.90;99.90;;;;;;4367883;32;20580;-67
2023/03/06 10:02:13;;;;;;;0.50;0.50;;;1.90;99.90;;;;;;4372820;32;20101;-66
2023/03/06 10:04:42;;;;;;;0.50;0.50;;;2.00;99.90;;;;;;4361209;32;20089;-67
2023/03/06 10:07:30;;;;;;;0.40;0.40;;;2.10;99.90;;;;;;4364483;32;20093;-68
2023/03/06 10:10:00;;;;;;;0.40;0.40;;;2.10;99.90;;;;;;4373165;32;20567;-63
2023/03/06 10:12:30;;;;;;;0.43;0.43;;;2.10;99.90;;;;;;4388955;32;20122;-68
2023/03/06 10:15:10;;;;;;;0.60;0.60;;;2.00;99.90;;;;;;4368688;32;20266;-67
2023/03/06 10:17:38;;;;;;;0.40;0.40;;;2.00;99.90;;;;;;4371747;32;21021;-68
2023/03/06 10:20:21;;;;;;;0.40;0.40;;;2.10;99.90;;;;;;4372487;32;20078;-66
2023/03/06 10:23:04;;;;;;;0.40;0.40;;;2.10;99.90;;;;;;4342560;32;20249;-67
2023/03/06 10:25:33;;;;;;;0.40;0.40;;;2.10;99.90;;;;;;4362357;32;20502;-69
2023/03/06 10:28:23;;;;;;;0.40;0.40;;;2.10;99.90;;;;;;4359010;32;20226;-66
2023/03/06 10:31:15;;;;;;;0.35;0.35;;;2.00;99.90;;;;;;4376126;32;20126;-66
2023/03/06 10:33:52;;;;;;;0.40;0.40;;;2.00;99.90;;;;;;4377597;32;20101;-64
2023/03/06 10:36:19;;;;;;;0.30;0.30;;;2.00;99.90;;;;;;4380830;32;20090;-65
2023/03/06 10:38:47;;;;;;;0.40;0.40;;;2.10;99.90;;;;;;4401884;32;20085;-64
2023/03/06 10:41:30;;;;;;;0.40;0.40;;;2.10;99.90;;;;;;4399735;32;20097;-65
2023/03/06 10:44:01;;;;;;;0.50;0.50;;;2.10;99.90;;;;;;4401107;27;20095;-75
2023/03/06 10:46:29;;;;;;;0.40;0.40;;;2.10;99.90;;;;;;4340256;32;20115;-72
2023/03/06 10:48:58;;;;;;;0.30;0.30;;;2.20;99.90;;;;;;4352596;32;20128;-74
2023/03/06 10:51:26;;;;;;;0.35;0.35;;;2.10;99.90;;;;;;4354891;32;20229;-74
2023/03/06 10:53:57;;;;;;;0.40;0.40;;;2.30;99.90;;;;;;4353856;32;20115;-74
2023/03/06 10:56:33;;;;;;;1.02;0.95;;;2.30;99.90;;;;;;4357366;32;20094;-74
2023/03/06 10:59:28;;;;;;;0.30;0.30;;;2.40;99.90;;;;;;4358704;32;20295;-75
2023/03/06 11:01:56;;;;;;;0.62;0.62;;;2.40;99.90;;;;;;4357430;32;20138;-72
2023/03/06 11:04:25;;;;;;;0.50;0.50;;;2.40;99.90;;;;;;4367832;32;20087;-75
2023/03/06 11:07:15;;;;;;;0.30;0.30;;;2.50;99.90;;;;;;4350776;32;20118;-75
2023/03/06 11:10:02;;;;;;;0.40;0.40;;;2.50;99.90;;;;;;4341185;32;20095;-74
2023/03/06 11:12:32;;;;;;;0.40;0.40;;;2.50;99.90;;;;;;4344245;32;20318;-75
2023/03/06 11:15:16;;;;;;;0.55;0.55;;;2.60;99.90;;;;;;4364127;32;20687;-74
2023/03/06 11:18:07;;;;;;;0.40;0.40;;;2.40;99.90;;;;;;4334878;32;20089;-75
2023/03/06 11:20:43;;;;;;;0.40;0.40;;;2.30;99.90;;;;;;4331951;32;20335;-75
2023/03/06 11:23:16;;;;;;;1.58;1.02;;;2.40;99.90;;;;;;4346502;32;20160;-77
2023/03/06 11:25:47;;;;;;;0.35;0.35;;;2.40;99.90;;;;;;4347525;32;20216;-77
2023/03/06 11:28:22;;;;;;;0.40;0.40;;;2.40;99.90;;;;;;4329693;32;20205;-76
2023/03/06 11:30:53;;;;;;;0.40;0.40;;;2.40;99.90;;;;;;4357236;32;20548;-75
2023/03/06 11:33:35;;;;;;;0.93;0.93;;;2.50;99.90;;;;;;4373160;32;20094;-76
2023/03/06 11:36:25;;;;;;;0.30;0.30;;;2.50;99.90;;;;;;4366701;32;20093;-77
2023/03/06 11:38:52;;;;;;;0.60;0.60;;;2.60;99.90;;;;;;4358005;32;20074;-75
2023/03/06 11:41:32;;;;;;;0.55;0.55;;;2.50;99.90;;;;;;4367303;32;20089;-76
2023/03/06 11:44:13;;;;;;;0.40;0.40;;;2.50;99.90;;;;;;4366450;32;135099;-76
2023/03/06 11:46:45;;;;;;;0.47;0.47;;;2.40;99.90;;;;;;4369017;32;20168;-74
2023/03/06 11:49:19;;;;;;;0.30;0.30;;;2.50;99.90;;;;;;4365429;32;20787;-76
2023/03/06 11:51:54;;;;;;;0.40;0.40;;;2.60;99.90;;;;;;4361244;32;20085;-74
2023/03/06 11:54:20;;;;;;;0.82;0.80;;;2.60;99.90;;;;;;4347956;32;21249;-74
2023/03/06 11:56:54;;;;;;;0.50;0.50;;;2.70;99.90;;;;;;4358588;32;20541;-74
2023/03/06 11:59:44;;;;;;;1.15;0.93;;;2.70;99.90;;;;;;4349582;32;20106;-74
2023/03/06 12:02:49;;;;;;;0.40;0.40;;;2.80;99.90;;;;;;4314114;32;20492;-75
2023/03/06 12:05:31;;;;;;;0.40;0.40;;;2.70;99.90;;;;;;4339864;32;20094;-75
2023/03/06 12:08:19;;;;;;;0.40;0.40;;;2.50;99.90;;;;;;4352610;32;20090;-75
2023/03/06 12:10:51;;;;;;;0.40;0.40;;;2.60;99.90;;;;;;4347329;32;20157;-75
2023/03/06 12:13:57;;;;;;;0.60;0.60;;;2.60;99.90;;;;;;4338016;32;20491;-75
2023/03/06 12:16:45;;;;;;;0.40;0.40;;;2.70;99.90;;;;;;4337445;32;20730;-74
2023/03/06 12:19:45;;;;;;;0.40;0.40;;;2.90;99.90;;;;;;4343024;32;20594;-74
2023/03/06 12:22:26;;;;;;;0.40;0.40;;;3.00;99.90;;;;;;4341356;32;20162;-74
2023/03/06 12:24:52;;;;;;;;;;;2.90;99.90;;;;;;4353002;32;20097;-74
2023/03/06 12:27:29;;;;;;;0.35;0.35;;;2.90;99.90;;;;;;4348743;32;19968;-74
2023/03/06 12:30:15;;;;;;;0.40;0.40;;;2.80;99.90;;;;;;4353656;32;20718;-74
2023/03/06 12:33:00;;;;;;;0.90;0.90;;;2.80;99.90;;;;;;4353493;32;21171;-73
2023/03/06 12:36:05;;;;;;;0.40;0.40;;;3.00;99.90;;;;;;4348670;32;20184;-74
2023/03/06 12:38:52;;;;;;;0.75;0.75;;;3.10;99.90;;;;;;4330114;32;20558;-74
2023/03/06 12:41:38;;;;;;;0.52;0.52;;;3.10;99.90;;;;;;4354742;32;20101;-75
2023/03/06 12:44:44;;;;;;;0.40;0.40;;;3.10;99.90;;;;;;4341253;32;20138;-75
2023/03/06 12:47:12;;;;;;;0.50;0.50;;;3.30;99.90;;;;;;4337793;32;20231;-75
2023/03/06 12:49:42;;;;;;;0.40;0.40;;;3.50;99.90;;;;;;4366071;32;20124;-75
2023/03/06 12:52:16;;;;;;;0.45;0.45;;;3.40;99.90;;;;;;4367895;32;20330;-75
2023/03/06 12:54:42;;;;;;;0.40;0.40;;;3.50;99.90;;;;;;4383052;32;20225;-75
2023/03/06 12:57:08;;;;;;;0.32;0.32;;;3.60;99.90;;;;;;4383790;32;20780;-76
2023/03/06 12:59:37;;;;;;;0.40;0.40;;;3.70;99.90;;;;;;4384452;32;20387;-77
2023/03/06 13:02:21;;;;;;;0.50;0.50;;;3.80;99.90;;;;;;4388128;32;20149;-77
2023/03/06 13:05:26;;;;;;;0.40;0.40;;;3.90;99.90;;;;;;4386859;32;20070;-76
2023/03/06 13:08:20;;;;;;;0.40;0.40;;;4.10;99.90;;;;;;4372946;32;20228;-76
2023/03/06 13:11:11;;;;;;;0.40;0.40;;;4.20;99.90;;;;;;4364243;32;20114;-76